Time;durP1;ratioP1;P1;durP2;ratioP2;P2;SDS_P1;SDS_P2;PMS_P1;PMS_P2;Temp;Humidity;BMP_temperature;BMP_pressure;BME280_temperature;BME280_humidity;BME280_pressure;Samples;Min_cycle;Max_cycle;Signal;HPM_P1;HPM_P2
2023/04/11 00:01:58;;;;;;;12.35;2.92;;;8.60;12.00;;;;;;20640374;28;20034;-40
2023/04/11 00:12:00;;;;;;;16.27;3.05;;;8.50;23.10;;;;;;20656713;28;20050;-41
2023/04/11 00:22:03;;;;;;;17.25;3.92;;;8.70;24.30;;;;;;20639323;28;20041;-41
2023/04/11 00:32:05;;;;;;;10.35;1.80;;;8.90;20.20;;;;;;20655932;28;20046;-41
2023/04/11 00:42:07;;;;;;;10.98;2.80;;;8.90;23.90;;;;;;20663780;28;20524;-40
2023/04/11 00:52:08;;;;;;;7.07;1.65;;;9.10;15.80;;;;;;20645494;28;20049;-41
2023/04/11 01:02:09;;;;;;;4.78;2.58;;;9.10;13.90;;;;;;20641785;28;20763;-41
2023/04/11 01:12:13;;;;;;;5.28;1.45;;;9.20;15.50;;;;;;20636127;28;20034;-40
2023/04/11 01:22:16;;;;;;;2.45;0.82;;;9.20;4.70;;;;;;20617239;28;20042;-41
2023/04/11 01:32:17;;;;;;;2.75;0.45;;;9.20;1.00;;;;;;20656677;28;20061;-41
2023/04/11 01:42:20;;;;;;;3.38;0.55;;;9.00;1.00;;;;;;20632782;28;20513;-41
2023/04/11 01:52:21;;;;;;;8.18;1.42;;;9.00;1.00;;;;;;20646134;28;21324;-41
2023/04/11 02:02:24;;;;;;;1.88;0.82;;;9.00;1.00;;;;;;20673856;28;20043;-41
2023/04/11 02:12:25;;;;;;;8.73;1.05;;;9.20;1.00;;;;;;20668484;28;20521;-41
2023/04/11 02:22:27;;;;;;;2.47;1.10;;;9.30;1.00;;;;;;20634124;28;21634;-41
2023/04/11 02:32:29;;;;;;;1.63;0.98;;;9.10;1.00;;;;;;20641549;28;20052;-41
2023/04/11 02:42:30;;;;;;;2.88;0.70;;;9.10;1.00;;;;;;20639337;28;20502;-41
2023/04/11 02:52:32;;;;;;;1.88;0.45;;;9.00;1.00;;;;;;20628728;28;20058;-41
2023/04/11 03:02:33;;;;;;;3.90;1.05;;;8.90;1.00;;;;;;20661758;28;20042;-41
2023/04/11 03:12:34;;;;;;;2.83;1.60;;;8.70;1.00;;;;;;20640761;28;20058;-41
2023/04/11 03:22:35;;;;;;;6.55;0.90;;;8.80;1.00;;;;;;20631168;28;20043;-41
2023/04/11 03:32:36;;;;;;;7.22;0.73;;;8.90;1.00;;;;;;20658341;28;20507;-41
2023/04/11 03:42:37;;;;;;;3.50;1.45;;;8.80;1.00;;;;;;20652115;28;20706;-41
2023/04/11 03:52:38;;;;;;;2.45;0.77;;;8.70;1.00;;;;;;20628476;28;20041;-41
2023/04/11 04:02:40;;;;;;;6.60;2.20;;;8.50;1.00;;;;;;20641989;28;20047;-41
2023/04/11 04:12:41;;;;;;;1.58;0.50;;;8.30;1.00;;;;;;20665644;28;20067;-42
2023/04/11 04:22:42;;;;;;;1.83;1.10;;;8.30;1.00;;;;;;20642974;28;20046;-41
2023/04/11 04:32:44;;;;;;;1.15;0.40;;;8.30;1.00;;;;;;20668195;28;20521;-42
2023/04/11 04:42:48;;;;;;;5.68;2.00;;;8.20;1.00;;;;;;20640019;28;20391;-42
2023/04/11 04:52:49;;;;;;;1.98;0.60;;;8.00;1.00;;;;;;20629823;28;20053;-42
2023/04/11 05:02:53;;;;;;;5.10;1.52;;;7.90;1.00;;;;;;20636171;28;20041;-41
2023/04/11 05:12:54;;;;;;;5.07;1.48;;;7.80;1.00;;;;;;20634925;28;20050;-41
2023/04/11 05:22:55;;;;;;;1.30;0.60;;;7.80;1.00;;;;;;20637821;28;20046;-42
2023/04/11 05:32:57;;;;;;;1.88;0.43;;;7.70;1.00;;;;;;20626394;28;20421;-42
2023/04/11 05:42:58;;;;;;;4.47;1.02;;;7.60;1.00;;;;;;20643364;28;20033;-41
2023/04/11 05:52:59;;;;;;;2.88;0.52;;;7.70;1.00;;;;;;20658851;28;20057;-42
2023/04/11 06:03:01;;;;;;;1.92;1.02;;;7.90;1.00;;;;;;20626208;28;20065;-41
2023/04/11 06:13:02;;;;;;;3.30;0.90;;;8.10;1.00;;;;;;20609252;28;20047;-42
2023/04/11 06:23:03;;;;;;;3.60;1.70;;;8.30;1.00;;;;;;20628293;28;20123;-42
2023/04/11 06:33:04;;;;;;;2.42;1.17;;;8.60;1.00;;;;;;20671880;28;20045;-42
2023/04/11 06:43:05;;;;;;;3.38;0.70;;;8.90;1.00;;;;;;20611303;28;20728;-42
2023/04/11 06:53:06;;;;;;;3.90;0.93;;;9.10;1.00;;;;;;20622439;28;20037;-42
2023/04/11 07:03:07;;;;;;;2.67;1.48;;;9.50;1.00;;;;;;20634167;28;20140;-42
2023/04/11 07:13:09;;;;;;;2.55;0.60;;;9.50;1.00;;;;;;20639434;28;20042;-42
2023/04/11 07:23:10;;;;;;;5.32;2.25;;;9.70;1.00;;;;;;20633901;28;20049;-42
2023/04/11 07:33:11;;;;;;;2.78;1.42;;;10.00;1.00;;;;;;20613719;28;20038;-42
2023/04/11 07:43:12;;;;;;;3.80;1.33;;;10.00;1.00;;;;;;20617145;28;20061;-42
2023/04/11 07:53:13;;;;;;;8.75;2.42;;;10.10;1.00;;;;;;20619036;28;20054;-42
2023/04/11 08:03:15;;;;;;;2.25;1.08;;;10.10;1.00;;;;;;20599101;28;20142;-42
2023/04/11 08:13:16;;;;;;;7.93;1.83;;;10.50;1.00;;;;;;20607545;28;20052;-42
2023/04/11 08:23:18;;;;;;;6.88;1.70;;;10.80;1.00;;;;;;20619583;28;20069;-42
2023/04/11 08:33:22;;;;;;;3.58;1.20;;;11.10;1.00;;;;;;20629625;28;20054;-42
2023/04/11 08:43:23;;;;;;;1.52;0.55;;;11.50;1.00;;;;;;20643352;28;20058;-42
2023/04/11 08:53:25;;;;;;;3.85;0.63;;;11.60;1.00;;;;;;20652434;28;20042;-42
2023/04/11 09:03:26;;;;;;;3.20;1.38;;;11.40;1.00;;;;;;20622235;28;20035;-42
2023/04/11 09:13:27;;;;;;;1.55;0.60;;;11.20;1.00;;;;;;20635031;28;20086;-42
2023/04/11 09:23:28;;;;;;;1.10;0.40;;;11.70;1.00;;;;;;20641523;28;20385;-42
2023/04/11 09:33:30;;;;;;;1.20;0.47;;;12.30;1.00;;;;;;20658810;28;20588;-42
2023/04/11 09:43:54;;;;;;;2.53;0.43;;;11.90;1.00;;;;;;20635033;28;20047;-42
2023/04/11 09:53:56;;;;;;;2.10;0.50;;;12.00;1.00;;;;;;20649677;28;20451;-43
2023/04/11 10:03:57;;;;;;;2.00;0.60;;;12.80;1.00;;;;;;20664034;28;20051;-43
2023/04/11 10:13:58;;;;;;;1.73;1.15;;;12.90;1.00;;;;;;20667014;28;20038;-42
2023/04/11 10:24:13;;;;;;;2.33;1.02;;;12.60;1.00;;;;;;20639025;28;20030;-42
2023/04/11 10:34:14;;;;;;;1.98;0.57;;;13.00;1.00;;;;;;20646796;28;20046;-42
2023/04/11 10:44:19;;;;;;;1.48;0.43;;;13.40;1.00;;;;;;20660222;28;20104;-42
2023/04/11 10:54:24;;;;;;;1.42;0.38;;;13.40;1.00;;;;;;20641617;28;20039;-42
2023/04/11 11:04:31;;;;;;;3.53;1.27;;;13.50;1.00;;;;;;20643712;28;20375;-42
2023/04/11 11:14:33;;;;;;;1.30;0.53;;;13.60;1.00;;;;;;20651098;28;20050;-41
2023/04/11 11:24:34;;;;;;;2.00;0.63;;;14.20;1.00;;;;;;20654878;28;20049;-42
2023/04/11 11:34:35;;;;;;;5.40;1.65;;;14.20;1.00;;;;;;20650123;28;20042;-41
2023/04/11 11:44:36;;;;;;;1.55;0.50;;;14.40;1.00;;;;;;20655082;28;20038;-41
2023/04/11 11:54:46;;;;;;;4.50;0.93;;;14.40;1.00;;;;;;20626227;28;20484;-41
2023/04/11 12:04:48;;;;;;;2.08;0.77;;;15.20;1.00;;;;;;20647727;28;20135;-41
2023/04/11 12:14:52;;;;;;;2.22;1.38;;;15.60;1.00;;;;;;20642861;28;20085;-41
2023/04/11 12:25:04;;;;;;;1.23;0.43;;;15.80;1.00;;;;;;20624005;28;21364;-41
2023/04/11 12:35:06;;;;;;;2.30;0.40;;;15.70;1.00;;;;;;20651887;28;20517;-41
2023/04/11 12:45:09;;;;;;;2.08;0.47;;;14.50;1.00;;;;;;20625244;28;20047;-41
2023/04/11 12:55:11;;;;;;;5.80;0.43;;;15.60;1.00;;;;;;20632874;28;20126;-41
2023/04/11 13:05:13;;;;;;;3.28;0.73;;;16.30;1.00;;;;;;20625234;28;20030;-42
2023/04/11 13:15:15;;;;;;;3.10;0.45;;;16.80;1.00;;;;;;20643278;28;20050;-42
2023/04/11 13:25:17;;;;;;;2.75;0.50;;;16.80;1.00;;;;;;20626311;28;20034;-41
2023/04/11 13:35:18;;;;;;;2.38;0.60;;;16.00;1.00;;;;;;20641323;28;20042;-41
2023/04/11 13:45:19;;;;;;;1.73;0.68;;;16.70;1.00;;;;;;20667105;28;20049;-41
2023/04/11 13:55:22;;;;;;;1.55;0.30;;;16.70;1.00;;;;;;20659540;28;20050;-41
2023/04/11 14:05:25;;;;;;;3.33;0.55;;;16.60;1.00;;;;;;20619309;28;20042;-41
2023/04/11 14:15:26;;;;;;;2.25;0.40;;;16.70;1.00;;;;;;20633464;28;20046;-41
2023/04/11 14:25:27;;;;;;;2.15;0.50;;;16.30;1.00;;;;;;20661382;28;20045;-43
2023/04/11 14:35:30;;;;;;;1.42;0.25;;;16.00;1.00;;;;;;20681127;28;20062;-42
2023/04/11 14:45:31;;;;;;;1.23;0.40;;;14.80;1.00;;;;;;20671742;28;20042;-41
2023/04/11 14:55:32;;;;;;;0.85;0.50;;;14.80;1.00;;;;;;20661209;28;20045;-42
2023/04/11 15:05:33;;;;;;;1.33;0.65;;;15.00;1.00;;;;;;20637495;28;20050;-41
2023/04/11 15:15:34;;;;;;;2.38;0.40;;;14.70;1.00;;;;;;20641365;28;20046;-42
2023/04/11 15:25:35;;;;;;;0.93;0.28;;;14.70;1.00;;;;;;20640782;28;20044;-42
2023/04/11 15:35:36;;;;;;;1.60;0.47;;;14.60;1.00;;;;;;20667137;28;20050;-42
2023/04/11 15:45:43;;;;;;;2.67;0.35;;;14.50;1.00;;;;;;20642653;28;20061;-42
2023/04/11 15:55:46;;;;;;;1.98;0.22;;;14.40;1.00;;;;;;20636910;28;20050;-43
2023/04/11 16:05:49;;;;;;;3.00;0.70;;;14.40;1.00;;;;;;20634858;28;20081;-43
2023/04/11 16:15:50;;;;;;;1.83;0.43;;;14.30;1.00;;;;;;20646301;28;20422;-42
2023/04/11 16:25:51;;;;;;;2.72;0.70;;;13.80;1.00;;;;;;20648436;28;20224;-43
2023/04/11 16:35:53;;;;;;;1.55;0.40;;;13.50;1.00;;;;;;20624757;28;20050;-42
2023/04/11 16:45:54;;;;;;;2.85;0.77;;;13.30;1.00;;;;;;20604020;28;23614;-42
2023/04/11 16:55:56;;;;;;;4.57;1.40;;;13.20;1.00;;;;;;20626715;28;20057;-42
2023/04/11 17:05:57;;;;;;;2.63;1.17;;;13.10;1.00;;;;;;20616899;28;20038;-42
2023/04/11 17:15:58;;;;;;;1.88;0.98;;;12.80;1.00;;;;;;20626053;28;20046;-42
2023/04/11 17:25:59;;;;;;;3.22;0.55;;;12.70;1.00;;;;;;20624437;28;20564;-42
2023/04/11 17:36:00;;;;;;;5.10;1.20;;;12.60;1.00;;;;;;20659068;28;20816;-42
2023/04/11 17:46:01;;;;;;;1.27;0.32;;;12.50;1.00;;;;;;20635133;28;20049;-42
2023/04/11 17:56:04;;;;;;;1.48;0.57;;;12.50;1.00;;;;;;20624006;28;20047;-42
2023/04/11 18:06:06;;;;;;;2.22;0.50;;;12.50;1.00;;;;;;20597622;28;20446;-42
2023/04/11 18:16:08;;;;;;;4.43;0.65;;;12.50;1.00;;;;;;20626534;28;20054;-42
2023/04/11 18:26:10;;;;;;;2.42;0.82;;;12.20;1.00;;;;;;20637352;28;21542;-42
2023/04/11 18:36:11;;;;;;;3.95;1.40;;;12.10;1.00;;;;;;20624200;28;20049;-42
2023/04/11 18:46:13;;;;;;;1.75;0.82;;;11.90;1.00;;;;;;20629947;28;20050;-42
2023/04/11 18:56:13;;;;;;;2.17;0.80;;;11.80;1.00;;;;;;20621151;28;20599;-42
2023/04/11 19:06:15;;;;;;;2.70;1.15;;;11.70;1.00;;;;;;20655479;28;20042;-43
2023/04/11 19:16:16;;;;;;;5.28;0.73;;;11.80;1.00;;;;;;20632891;28;20050;-43
2023/04/11 19:26:18;;;;;;;5.60;1.77;;;11.70;1.00;;;;;;20629153;28;20042;-43
2023/04/11 19:36:19;;;;;;;1.60;0.75;;;11.60;1.00;;;;;;20631719;28;20045;-43
2023/04/11 19:46:20;;;;;;;2.78;1.08;;;11.60;1.00;;;;;;20625319;28;20044;-43
2023/04/11 19:56:21;;;;;;;1.48;0.70;;;11.40;1.00;;;;;;20612297;28;20442;-43
2023/04/11 20:06:22;;;;;;;7.97;0.93;;;11.40;1.00;;;;;;20626451;28;20047;-43
2023/04/11 20:16:24;;;;;;;6.18;2.03;;;11.40;1.00;;;;;;20669500;28;20045;-43
2023/04/11 20:26:26;;;;;;;3.38;0.90;;;11.30;1.00;;;;;;20638458;28;20053;-43
2023/04/11 20:36:28;;;;;;;4.65;1.17;;;11.40;1.00;;;;;;20607227;28;20062;-43
2023/04/11 20:46:29;;;;;;;3.00;0.55;;;11.20;1.00;;;;;;20624102;28;20061;-43
2023/04/11 20:56:34;;;;;;;3.05;1.42;;;11.10;1.00;;;;;;20626862;28;20065;-43
2023/04/11 21:06:34;;;;;;;2.28;0.65;;;11.10;1.00;;;;;;20631751;28;20683;-43
2023/04/11 21:16:36;;;;;;;3.58;1.52;;;11.10;1.00;;;;;;20636052;28;20042;-43
2023/04/11 21:26:37;;;;;;;3.90;1.05;;;11.00;1.00;;;;;;20648701;28;20045;-43
2023/04/11 21:36:38;;;;;;;4.63;1.13;;;11.00;1.00;;;;;;20637961;28;20057;-43
2023/04/11 21:46:39;;;;;;;2.05;0.70;;;10.90;1.00;;;;;;20626020;28;20042;-43
2023/04/11 21:56:42;;;;;;;4.22;1.33;;;10.90;1.00;;;;;;20613830;28;20054;-43
2023/04/11 22:06:46;;;;;;;5.35;1.45;;;10.80;1.00;;;;;;20646815;28;20047;-43
2023/04/11 22:16:50;;;;;;;1.67;0.80;;;10.70;1.00;;;;;;20643750;28;20628;-42
2023/04/11 22:26:56;;;;;;;2.20;0.70;;;10.50;1.00;;;;;;20640606;28;20418;-43
2023/04/11 22:36:58;;;;;;;1.90;1.03;;;10.20;1.00;;;;;;20646512;28;20089;-43
2023/04/11 22:47:04;;;;;;;5.32;1.85;;;10.10;1.00;;;;;;20658373;28;20045;-43
2023/04/11 22:57:06;;;;;;;1.53;0.60;;;9.90;1.00;;;;;;20651412;28;20038;-43
2023/04/11 23:07:07;;;;;;;3.70;0.93;;;9.80;1.00;;;;;;20630173;28;20053;-43
2023/04/11 23:17:08;;;;;;;2.85;1.05;;;9.60;1.00;;;;;;20640215;28;20057;-43
2023/04/11 23:27:10;;;;;;;2.17;0.85;;;9.50;1.00;;;;;;20630993;28;20037;-43
2023/04/11 23:37:12;;;;;;;3.15;1.75;;;9.40;1.00;;;;;;20634588;28;20049;-42
2023/04/11 23:47:13;;;;;;;2.55;0.85;;;9.20;2.70;;;;;;20629487;28;20160;-43
2023/04/11 23:57:15;;;;;;;4.18;1.83;;;9.10;6.40;;;;;;20629134;28;20053;-42
